Aérodrome :
LOGIN :

S'inscrire | Disclaimer

   EN    FR    IT 

 










Légende :    VFR   VFR Marginal   IFR   IFR Intensif   IFR Très Intensif
Visi : 
Plafond : 
>= 8 km
>= 3000ft
5 à 8 km
1000 à 3000 ft
1500m à 5 km
500 à 1000 ft
800 à 1500m
200 à 500 ft
< 800m
< 200 ft
Symboles :   Orages  Brouillard  Fortes neiges  Fortes précipitations  Vent > 20 kt
SIGMETs :   Divers  Orages  Givrage  Turbulence  Onde Orograph.  Cendres Volcan.






- Altitude de l'aérodrome : 36 ft
- Code IATA : GJL


DAAV - Jijel Ferhat Abbas

DERNIER METAR :
  • 121800Z 30014G24KT 9999 SCT020TCU 16/05 Q1008

METARs EXPIRÉS :
  • 121700Z 31016KT 9999 SCT020TCU 16/05 Q1007
  • 121600Z 31019KT 8000 SCT020TCU 16/05 Q1007

TAF TAF DAAV
Valide du 12 à 18h jusqu'au 13 à 18h UTC


121700Z 1218/1318 30018KT 8000 SCT015 FEW020TCU SCT023
TEMPO 1218/1306 30020G35KT 4000 -SHRA FEW020CB
TEMPO 1314/1318 3000 TSRA SCT020CB



MET'MAP, la Météo Aéronautique d'un coup d'oeil ! - Copyright ORBIFLY Décembre 2007 - Disclaimer

ORBIFLY MET'MAP TEAM :

Programmation & Développement : Alexandra Zaïnal
Conception & Développement : Baudouin d'Aumeries
Co-Programmation & Développement : Marc-Olivier Méhu
Soutien technique & logistique : Manuel Goepfert

Contact : metmap@orbifly.com




SOURCES & CREDITS :

   NOAA